Time;durP1;ratioP1;P1;durP2;ratioP2;P2;SDS_P1;SDS_P2;PMS_P1;PMS_P2;Temp;Humidity;BMP_temperature;BMP_pressure;BME280_temperature;BME280_humidity;BME280_pressure;Samples;Min_cycle;Max_cycle;Signal;HPM_P1;HPM_P2
2023/08/26 00:01:39;;;;;;;9.83;8.17;;;18.90;1.00;;;;;;5075329;28;20197;-64
2023/08/26 00:04:05;;;;;;;12.80;8.43;;;18.90;1.00;;;;;;5075202;28;20638;-64
2023/08/26 00:06:31;;;;;;;8.57;7.77;;;18.90;1.00;;;;;;5072977;28;20261;-64
2023/08/26 00:08:57;;;;;;;8.23;7.40;;;18.90;1.00;;;;;;5075374;28;20448;-64
2023/08/26 00:11:22;;;;;;;9.87;8.83;;;18.90;1.00;;;;;;5075382;28;20192;-64
2023/08/26 00:13:49;;;;;;;9.53;8.33;;;18.90;1.00;;;;;;5074052;28;20174;-64
2023/08/26 00:16:14;;;;;;;13.83;9.03;;;18.90;1.00;;;;;;5074447;28;20654;-65
2023/08/26 00:18:40;;;;;;;12.67;8.90;;;18.90;1.00;;;;;;5074691;28;20424;-64
2023/08/26 00:21:06;;;;;;;10.40;8.73;;;19.00;1.00;;;;;;5073700;28;20173;-65
2023/08/26 00:23:32;;;;;;;9.23;8.40;;;19.00;1.00;;;;;;5057440;28;20802;-64
2023/08/26 00:25:58;;;;;;;11.17;7.23;;;19.00;1.00;;;;;;5054068;28;20643;-63
2023/08/26 00:28:23;;;;;;;10.17;9.10;;;19.00;1.00;;;;;;5062620;28;20186;-66
2023/08/26 00:31:00;;;;;;;10.00;7.80;;;19.00;1.00;;;;;;5073776;28;20266;-64
2023/08/26 00:33:26;;;;;;;7.70;6.43;;;18.90;1.00;;;;;;5075089;28;20162;-63
2023/08/26 00:35:52;;;;;;;9.60;8.63;;;18.90;1.00;;;;;;5074073;28;20469;-64
2023/08/26 00:38:18;;;;;;;8.10;7.33;;;18.90;1.00;;;;;;5057596;28;20957;-64
2023/08/26 00:40:43;;;;;;;8.00;5.33;;;18.80;1.00;;;;;;5054790;28;20209;-64
2023/08/26 00:43:10;;;;;;;5.80;5.30;;;18.70;1.00;;;;;;5053395;28;20598;-64
2023/08/26 00:45:42;;;;;;;7.30;6.03;;;18.80;1.00;;;;;;5054038;28;20224;-64
2023/08/26 00:48:11;;;;;;;6.13;4.63;;;18.80;1.00;;;;;;5054659;28;20417;-65
2023/08/26 00:50:39;;;;;;;5.07;4.57;;;18.70;1.00;;;;;;5054532;28;20501;-65
2023/08/26 00:53:06;;;;;;;6.10;4.80;;;18.60;1.00;;;;;;5071850;28;20451;-64
2023/08/26 00:55:32;;;;;;;5.57;4.40;;;18.60;1.00;;;;;;5073756;28;20459;-64
2023/08/26 00:57:58;;;;;;;7.77;4.63;;;18.60;1.00;;;;;;5073887;28;20459;-64
2023/08/26 01:00:26;;;;;;;6.23;4.40;;;18.60;1.00;;;;;;5074527;28;20400;-66
2023/08/26 01:02:51;;;;;;;4.83;4.27;;;18.60;1.00;;;;;;5074425;28;20192;-64
2023/08/26 01:05:17;;;;;;;4.97;4.57;;;18.50;1.00;;;;;;5071912;28;20479;-63
2023/08/26 01:07:45;;;;;;;6.33;4.87;;;18.50;1.00;;;;;;5068524;28;20241;-64
2023/08/26 01:10:11;;;;;;;5.50;5.00;;;18.50;1.00;;;;;;5054224;28;20449;-65
2023/08/26 01:13:01;;;;;;;6.97;5.07;;;18.50;1.00;;;;;;5054155;28;20385;-64
2023/08/26 01:15:28;;;;;;;7.20;5.23;;;18.50;1.00;;;;;;5052822;28;20882;-64
2023/08/26 01:17:55;;;;;;;6.33;5.03;;;18.50;1.00;;;;;;5054060;28;20920;-64
2023/08/26 01:20:23;;;;;;;5.57;5.07;;;18.50;1.00;;;;;;5060694;28;20431;-65
2023/08/26 01:22:51;;;;;;;6.10;5.30;;;18.50;1.00;;;;;;5073955;28;20397;-63
2023/08/26 01:25:17;;;;;;;8.03;4.97;;;18.60;1.00;;;;;;5071515;28;20508;-64
2023/08/26 01:27:43;;;;;;;6.00;5.47;;;18.60;1.00;;;;;;5055130;28;20477;-65
2023/08/26 01:30:10;;;;;;;5.73;5.13;;;18.50;1.00;;;;;;5053914;28;20491;-63
2023/08/26 01:32:42;;;;;;;8.50;5.47;;;18.40;1.00;;;;;;5053609;28;20551;-63
2023/08/26 01:35:17;;;;;;;6.17;5.13;;;18.50;1.00;;;;;;5062850;28;20416;-64
2023/08/26 01:37:43;;;;;;;6.67;5.60;;;18.40;1.00;;;;;;5073354;28;20416;-66
2023/08/26 01:40:11;;;;;;;6.70;5.47;;;18.40;1.00;;;;;;5073841;28;20427;-64
2023/08/26 01:42:40;;;;;;;7.07;5.10;;;18.40;1.00;;;;;;5073696;28;20943;-63
2023/08/26 01:45:06;;;;;;;7.73;5.30;;;18.40;1.00;;;;;;5067865;28;20771;-65
2023/08/26 01:47:32;;;;;;;6.40;5.73;;;18.40;1.00;;;;;;5052507;28;20471;-64
2023/08/26 01:49:57;;;;;;;5.70;5.30;;;18.40;1.00;;;;;;5060183;28;20198;-65
2023/08/26 01:52:23;;;;;;;7.03;5.97;;;18.40;1.00;;;;;;5073224;28;20174;-64
2023/08/26 01:54:49;;;;;;;6.23;5.40;;;18.40;1.00;;;;;;5073352;28;20181;-65
2023/08/26 01:57:17;;;;;;;6.90;5.57;;;18.40;1.00;;;;;;5072435;28;20182;-64
2023/08/26 01:59:43;;;;;;;6.70;5.53;;;18.40;1.00;;;;;;5065926;28;20182;-64
2023/08/26 02:02:09;;;;;;;7.63;5.80;;;18.40;1.00;;;;;;5052030;28;20416;-64
2023/08/26 02:04:37;;;;;;;6.10;5.30;;;18.40;1.00;;;;;;5055146;28;20259;-64
2023/08/26 02:07:04;;;;;;;7.50;4.73;;;18.40;1.00;;;;;;5071982;28;20174;-64
2023/08/26 02:09:29;;;;;;;5.33;4.83;;;18.40;1.00;;;;;;5072869;28;20459;-64
2023/08/26 02:11:55;;;;;;;5.30;4.80;;;18.40;1.00;;;;;;5073145;28;20405;-64
2023/08/26 02:14:21;;;;;;;5.77;5.30;;;18.40;1.00;;;;;;5063145;28;20190;-65
2023/08/26 02:16:46;;;;;;;4.83;4.43;;;18.30;1.00;;;;;;5052176;28;20171;-65
2023/08/26 02:19:12;;;;;;;5.80;5.20;;;18.30;1.00;;;;;;5052895;28;20718;-64
2023/08/26 02:21:38;;;;;;;6.30;5.70;;;18.40;1.00;;;;;;5070153;28;20186;-63
2023/08/26 02:24:03;;;;;;;6.77;5.30;;;18.30;1.00;;;;;;5072996;28;20245;-63
2023/08/26 02:26:29;;;;;;;17.20;6.30;;;18.30;1.00;;;;;;5071623;28;20202;-65
2023/08/26 02:28:55;;;;;;;7.87;5.60;;;18.30;1.00;;;;;;5071369;28;20209;-63
2023/08/26 02:31:21;;;;;;;8.57;6.30;;;18.30;1.00;;;;;;5072853;28;20696;-64
2023/08/26 02:33:46;;;;;;;7.50;6.00;;;18.40;1.00;;;;;;5072666;28;20163;-64
2023/08/26 02:36:12;;;;;;;7.43;6.20;;;18.40;1.00;;;;;;5069271;28;20189;-64
2023/08/26 02:38:38;;;;;;;6.40;5.80;;;18.30;1.00;;;;;;5072751;28;20217;-64
2023/08/26 02:41:04;;;;;;;20.93;6.37;;;18.30;1.00;;;;;;5072886;28;20530;-63
2023/08/26 02:43:29;;;;;;;7.30;6.07;;;18.30;1.00;;;;;;5056464;28;20190;-64
2023/08/26 02:45:56;;;;;;;7.20;6.50;;;18.30;1.00;;;;;;5051702;28;20920;-63
2023/08/26 02:48:23;;;;;;;10.17;7.10;;;18.20;1.00;;;;;;5052548;28;20202;-63
2023/08/26 02:51:06;;;;;;;7.10;6.40;;;18.20;1.00;;;;;;5059153;28;20432;-63
2023/08/26 02:53:32;;;;;;;12.23;9.50;;;18.30;1.00;;;;;;5072611;28;20439;-64
2023/08/26 02:55:58;;;;;;;8.83;8.03;;;18.30;1.00;;;;;;5071675;28;20474;-64
2023/08/26 02:58:23;;;;;;;11.27;8.47;;;18.30;1.00;;;;;;5071589;28;20201;-65
2023/08/26 03:00:50;;;;;;;9.67;8.70;;;18.20;1.00;;;;;;5072015;28;20197;-64
2023/08/26 03:03:16;;;;;;;11.07;8.17;;;18.20;1.00;;;;;;5062670;28;20175;-64
2023/08/26 03:05:41;;;;;;;11.10;9.00;;;18.20;1.00;;;;;;5051613;28;20512;-65
2023/08/26 03:08:07;;;;;;;10.83;9.57;;;18.20;1.00;;;;;;5052427;28;20655;-63
2023/08/26 03:10:34;;;;;;;19.03;13.03;;;18.20;1.00;;;;;;5052406;28;20651;-63
2023/08/26 03:12:59;;;;;;;15.37;10.47;;;18.10;1.00;;;;;;5052596;28;20167;-63
2023/08/26 03:15:29;;;;;;;17.67;12.90;;;18.10;1.00;;;;;;5051426;28;20501;-64
2023/08/26 03:17:56;;;;;;;22.20;13.43;;;18.20;1.00;;;;;;5051790;28;20193;-64
2023/08/26 03:20:22;;;;;;;18.73;13.90;;;18.20;1.00;;;;;;5056288;28;20519;-65
2023/08/26 03:22:47;;;;;;;20.07;13.70;;;18.10;1.00;;;;;;5072463;28;20492;-64
2023/08/26 03:25:13;;;;;;;17.60;12.40;;;18.10;1.00;;;;;;5071460;28;20409;-63
2023/08/26 03:27:39;;;;;;;19.87;13.30;;;18.00;1.00;;;;;;5072336;28;20694;-65
2023/08/26 03:30:05;;;;;;;16.57;12.73;;;18.10;1.00;;;;;;5072083;28;20532;-64
2023/08/26 03:32:31;;;;;;;15.27;11.43;;;18.10;1.00;;;;;;5072196;28;20175;-64
2023/08/26 03:34:56;;;;;;;13.80;11.07;;;18.10;1.00;;;;;;5070565;28;20477;-65
2023/08/26 03:37:22;;;;;;;19.93;11.90;;;18.00;1.00;;;;;;5070994;28;20678;-64
2023/08/26 03:39:48;;;;;;;17.73;10.57;;;18.00;1.00;;;;;;5072171;28;20179;-65
2023/08/26 03:42:14;;;;;;;17.87;11.90;;;18.00;1.00;;;;;;5072148;28;20182;-64
2023/08/26 03:44:39;;;;;;;16.00;11.17;;;17.90;1.00;;;;;;5056334;28;20240;-64
2023/08/26 03:47:05;;;;;;;21.77;11.07;;;17.90;1.00;;;;;;5051061;28;20175;-64
2023/08/26 03:49:31;;;;;;;37.83;10.03;;;17.90;1.00;;;;;;5057035;28;20559;-64
2023/08/26 03:51:56;;;;;;;28.40;9.00;;;17.80;1.00;;;;;;5072118;28;20500;-63
2023/08/26 03:54:22;;;;;;;35.37;9.90;;;17.80;1.00;;;;;;5071947;28;20193;-65
2023/08/26 03:56:48;;;;;;;18.13;9.50;;;17.80;1.00;;;;;;5070745;28;20177;-64
2023/08/26 03:59:13;;;;;;;20.60;11.00;;;17.80;1.00;;;;;;5054574;28;20202;-64
2023/08/26 04:01:39;;;;;;;20.10;10.10;;;17.80;1.00;;;;;;5055721;28;20178;-64
2023/08/26 04:04:05;;;;;;;27.90;10.57;;;17.70;1.00;;;;;;5054988;28;20737;-64
2023/08/26 04:06:31;;;;;;;43.97;10.90;;;17.70;1.00;;;;;;5074395;28;20175;-64
2023/08/26 04:08:57;;;;;;;43.77;10.63;;;17.60;1.00;;;;;;5075466;28;20226;-63
2023/08/26 04:11:23;;;;;;;17.80;9.20;;;17.60;1.00;;;;;;5075341;28;20425;-65
2023/08/26 04:13:48;;;;;;;31.13;10.93;;;17.60;1.00;;;;;;5074077;28;20455;-63
2023/08/26 04:16:19;;;;;;;25.33;10.60;;;17.60;1.00;;;;;;5073975;28;20169;-64
2023/08/26 04:18:45;;;;;;;36.07;11.27;;;17.70;1.00;;;;;;5073743;28;20732;-63
2023/08/26 04:21:10;;;;;;;25.10;11.60;;;17.70;1.00;;;;;;5058918;28;20437;-63
2023/08/26 04:23:36;;;;;;;38.97;13.00;;;17.70;1.00;;;;;;5053864;28;20654;-64
2023/08/26 04:26:05;;;;;;;21.87;10.57;;;17.70;1.00;;;;;;5054661;28;20195;-63
2023/08/26 04:28:30;;;;;;;20.47;10.77;;;17.70;1.00;;;;;;5054821;28;20191;-63
2023/08/26 04:30:58;;;;;;;17.97;11.43;;;17.70;1.00;;;;;;5055159;28;20444;-64
2023/08/26 04:33:23;;;;;;;21.40;11.93;;;17.70;1.00;;;;;;5057670;28;20171;-64
2023/08/26 04:35:49;;;;;;;27.73;13.50;;;17.80;1.00;;;;;;5053350;28;20440;-63
2023/08/26 04:38:15;;;;;;;19.63;13.37;;;17.80;1.00;;;;;;5053624;28;20194;-64
2023/08/26 04:40:41;;;;;;;16.03;12.67;;;17.80;1.00;;;;;;5054704;28;20210;-63
2023/08/26 04:43:10;;;;;;;21.00;14.57;;;17.90;1.00;;;;;;5054838;28;20171;-63
2023/08/26 04:45:40;;;;;;;20.23;13.93;;;17.90;1.00;;;;;;5054012;28;20409;-63
2023/08/26 04:48:07;;;;;;;20.83;15.37;;;17.90;1.00;;;;;;5055341;28;20795;-63
2023/08/26 04:50:34;;;;;;;22.87;15.87;;;18.00;1.00;;;;;;5053737;28;20449;-65
2023/08/26 04:53:01;;;;;;;21.70;16.10;;;18.00;1.00;;;;;;5053820;28;20486;-63
2023/08/26 04:55:26;;;;;;;25.70;15.47;;;18.00;1.00;;;;;;5053595;28;20425;-64
2023/08/26 04:57:53;;;;;;;28.67;18.07;;;18.00;1.00;;;;;;5054492;28;20551;-63
2023/08/26 05:00:18;;;;;;;28.07;17.70;;;18.00;1.00;;;;;;5054642;28;20171;-63
2023/08/26 05:02:44;;;;;;;29.97;16.80;;;18.00;1.00;;;;;;5061130;28;20428;-64
2023/08/26 05:05:10;;;;;;;24.67;17.87;;;18.00;1.00;;;;;;5073534;28;20193;-63
2023/08/26 05:07:36;;;;;;;31.90;17.00;;;18.00;1.00;;;;;;5072421;28;20303;-64
2023/08/26 05:10:07;;;;;;;21.50;16.60;;;18.00;1.00;;;;;;5073595;28;20565;-63
2023/08/26 05:12:32;;;;;;;26.60;17.50;;;18.10;1.00;;;;;;5073774;28;20173;-64
2023/08/26 05:14:58;;;;;;;30.67;17.03;;;18.00;1.00;;;;;;5074004;28;20404;-64
2023/08/26 05:17:24;;;;;;;29.13;17.87;;;18.00;1.00;;;;;;5070888;28;20194;-63
2023/08/26 05:19:50;;;;;;;28.67;16.50;;;18.00;1.00;;;;;;5066093;28;20175;-63
2023/08/26 05:22:16;;;;;;;42.20;17.50;;;18.00;1.00;;;;;;5054126;28;20163;-64
2023/08/26 05:24:41;;;;;;;25.50;18.13;;;18.00;1.00;;;;;;5054026;28;20173;-63
2023/08/26 05:27:07;;;;;;;31.40;18.90;;;18.00;1.00;;;;;;5052736;28;20197;-64
2023/08/26 05:29:33;;;;;;;26.83;19.10;;;18.00;1.00;;;;;;5053641;28;20205;-64
2023/08/26 05:31:59;;;;;;;32.53;17.87;;;18.10;1.00;;;;;;5058251;28;20654;-64
2023/08/26 05:34:25;;;;;;;27.80;16.83;;;18.10;1.00;;;;;;5073858;28;20393;-65
2023/08/26 05:36:51;;;;;;;25.30;17.70;;;18.20;1.00;;;;;;5072886;28;20927;-63
2023/08/26 05:39:17;;;;;;;27.27;19.00;;;18.20;1.00;;;;;;5073641;28;20183;-65
2023/08/26 05:41:42;;;;;;;23.90;15.87;;;18.20;1.00;;;;;;5071041;28;20444;-65
2023/08/26 05:44:08;;;;;;;25.00;16.30;;;18.20;1.00;;;;;;5054110;28;20640;-63
2023/08/26 05:46:34;;;;;;;23.30;17.10;;;18.20;1.00;;;;;;5051807;28;20283;-64
2023/08/26 05:48:59;;;;;;;22.60;14.47;;;18.20;1.00;;;;;;5053426;28;20215;-63
2023/08/26 05:51:25;;;;;;;23.90;16.33;;;18.20;1.00;;;;;;5052152;28;20171;-63
2023/08/26 05:53:50;;;;;;;21.77;15.70;;;18.20;1.00;;;;;;5053427;28;20632;-64
2023/08/26 05:56:16;;;;;;;23.53;15.00;;;18.20;1.00;;;;;;5052271;28;20274;-65
2023/08/26 05:58:42;;;;;;;21.90;16.43;;;18.30;1.00;;;;;;5053398;28;20194;-63
2023/08/26 06:01:07;;;;;;;22.93;16.33;;;18.30;1.00;;;;;;5053322;28;20632;-65
2023/08/26 06:03:33;;;;;;;21.87;14.70;;;18.20;1.00;;;;;;5054364;28;20171;-67
2023/08/26 06:05:59;;;;;;;21.80;15.67;;;18.30;1.00;;;;;;5051823;28;20171;-67
2023/08/26 06:08:25;;;;;;;18.50;14.83;;;18.30;1.00;;;;;;5052926;28;20191;-64
2023/08/26 06:10:56;;;;;;;21.33;15.80;;;18.30;1.00;;;;;;5052568;28;20546;-67
2023/08/26 06:13:22;;;;;;;21.33;14.90;;;18.30;1.00;;;;;;5053116;28;20209;-68
2023/08/26 06:15:58;;;;;;;21.20;15.40;;;18.30;1.00;;;;;;5052225;28;20894;-64
2023/08/26 06:18:24;;;;;;;21.40;16.13;;;18.40;1.00;;;;;;5054689;28;20813;-65
2023/08/26 06:20:51;;;;;;;23.77;15.13;;;18.50;1.00;;;;;;5053036;28;20401;-64
2023/08/26 06:23:17;;;;;;;23.00;15.80;;;18.50;1.00;;;;;;5052588;28;20406;-64
2023/08/26 06:25:54;;;;;;;21.93;15.90;;;18.50;1.00;;;;;;5050235;28;20551;-64
2023/08/26 06:28:20;;;;;;;22.10;15.37;;;18.60;1.00;;;;;;5054059;28;20456;-65
2023/08/26 06:30:46;;;;;;;25.77;15.97;;;18.50;1.00;;;;;;5052803;28;20552;-63
2023/08/26 06:33:12;;;;;;;21.13;15.17;;;18.60;1.00;;;;;;5058232;28;20428;-65
2023/08/26 06:35:38;;;;;;;22.93;17.13;;;18.50;1.00;;;;;;5072025;28;20757;-63
2023/08/26 06:38:04;;;;;;;24.23;17.50;;;18.50;1.00;;;;;;5065840;28;20460;-65
2023/08/26 06:40:31;;;;;;;28.40;17.43;;;18.50;1.00;;;;;;5052444;28;20166;-65
2023/08/26 06:43:02;;;;;;;28.77;18.20;;;18.50;1.00;;;;;;5052241;28;20612;-65
2023/08/26 06:45:28;;;;;;;24.13;16.73;;;18.40;1.00;;;;;;5054281;28;20495;-65
2023/08/26 06:47:54;;;;;;;29.00;19.40;;;18.50;1.00;;;;;;5054884;28;20495;-64
2023/08/26 06:50:20;;;;;;;31.23;19.30;;;18.50;1.00;;;;;;5072785;28;20206;-65
2023/08/26 06:52:46;;;;;;;28.17;18.87;;;18.60;1.00;;;;;;5072689;28;20757;-64
2023/08/26 06:55:12;;;;;;;31.27;19.50;;;18.60;1.00;;;;;;5071729;28;20427;-63
2023/08/26 06:57:37;;;;;;;27.33;20.63;;;18.60;1.00;;;;;;5070511;28;20447;-64
2023/08/26 07:00:05;;;;;;;34.13;19.87;;;18.70;1.00;;;;;;5070778;28;20174;-65
2023/08/26 07:02:30;;;;;;;26.43;17.87;;;18.70;1.00;;;;;;5072560;28;20489;-65
2023/08/26 07:04:56;;;;;;;25.57;18.53;;;18.70;1.00;;;;;;5056339;28;20874;-64
2023/08/26 07:07:22;;;;;;;22.90;16.70;;;18.80;1.00;;;;;;5049998;28;20202;-64
2023/08/26 07:09:48;;;;;;;23.33;16.17;;;18.80;1.00;;;;;;5053354;28;20210;-65
2023/08/26 07:12:14;;;;;;;25.50;16.10;;;18.90;1.00;;;;;;5072616;28;20197;-64
2023/08/26 07:14:40;;;;;;;18.60;14.33;;;18.90;1.00;;;;;;5055424;28;20177;-65
2023/08/26 07:17:06;;;;;;;18.63;13.77;;;18.90;1.00;;;;;;5050849;28;20406;-66
2023/08/26 07:19:32;;;;;;;15.13;11.40;;;18.80;1.00;;;;;;5064472;28;20509;-65
2023/08/26 07:21:58;;;;;;;14.20;10.90;;;18.80;99.90;;;;;;5072315;28;20411;-66
2023/08/26 07:24:23;;;;;;;14.70;10.93;;;18.90;99.90;;;;;;5064816;28;20433;-65
2023/08/26 07:26:49;;;;;;;15.60;9.43;;;19.00;99.90;;;;;;5051506;28;20655;-64
2023/08/26 07:29:15;;;;;;;14.50;9.77;;;19.00;99.90;;;;;;5052080;28;20195;-64
2023/08/26 07:31:41;;;;;;;9.90;7.30;;;19.10;99.90;;;;;;5052249;28;20253;-64
2023/08/26 07:34:08;;;;;;;8.87;7.33;;;19.10;99.90;;;;;;5059471;28;20435;-65
2023/08/26 07:36:33;;;;;;;9.03;5.83;;;19.10;99.90;;;;;;5074845;28;20453;-64
2023/08/26 07:38:59;;;;;;;6.30;5.70;;;18.90;99.90;;;;;;5075867;28;20432;-64
2023/08/26 07:41:25;;;;;;;9.03;5.43;;;18.90;99.90;;;;;;5064142;28;20178;-64
2023/08/26 07:43:51;;;;;;;6.40;5.70;;;18.80;99.90;;;;;;5057028;28;20182;-66
2023/08/26 07:46:18;;;;;;;7.13;4.80;;;18.70;99.90;;;;;;5075032;28;20235;-64
2023/08/26 07:48:44;;;;;;;6.63;4.90;;;18.70;99.90;;;;;;5073188;28;20205;-65
2023/08/26 07:51:10;;;;;;;4.33;3.90;;;18.60;99.90;;;;;;5056203;28;20805;-64
2023/08/26 07:53:36;;;;;;;7.93;4.07;;;18.50;99.90;;;;;;5061651;28;20435;-65
2023/08/26 07:56:02;;;;;;;5.13;4.60;;;18.40;99.90;;;;;;5074700;28;20249;-64
2023/08/26 07:58:27;;;;;;;4.00;3.67;;;18.30;99.90;;;;;;5074595;28;20244;-66
2023/08/26 08:00:53;;;;;;;7.20;4.73;;;18.30;99.90;;;;;;5075736;28;20174;-64
2023/08/26 08:03:21;;;;;;;4.30;4.00;;;18.40;99.90;;;;;;5075585;28;20605;-63
2023/08/26 08:05:46;;;;;;;5.37;3.27;;;18.50;99.90;;;;;;5057365;28;20436;-66
2023/08/26 08:08:12;;;;;;;4.37;3.17;;;18.60;99.90;;;;;;5054919;28;20203;-64
2023/08/26 08:10:38;;;;;;;5.27;3.40;;;18.60;99.90;;;;;;5053920;28;20453;-64
2023/08/26 08:13:04;;;;;;;3.20;2.93;;;18.70;99.90;;;;;;5054086;28;20266;-67
2023/08/26 08:15:30;;;;;;;3.30;3.10;;;18.80;99.90;;;;;;5054530;28;20531;-67
2023/08/26 08:17:55;;;;;;;6.23;2.87;;;18.90;99.90;;;;;;5055317;28;20426;-64
2023/08/26 08:20:21;;;;;;;5.13;2.97;;;18.90;99.90;;;;;;5055029;28;20195;-67
2023/08/26 08:22:48;;;;;;;5.63;2.43;;;18.90;99.90;;;;;;5055262;28;20241;-65
2023/08/26 08:25:15;;;;;;;2.60;2.40;;;19.00;99.90;;;;;;5054300;28;20175;-65
2023/08/26 08:27:41;;;;;;;4.20;3.10;;;19.10;87.70;;;;;;5055114;28;20425;-66
2023/08/26 08:30:07;;;;;;;4.60;2.77;;;19.20;79.10;;;;;;5054487;28;20453;-65
2023/08/26 08:32:33;;;;;;;7.13;2.27;;;19.30;41.80;;;;;;5055000;28;20439;-64
2023/08/26 08:35:03;;;;;;;3.17;2.77;;;19.40;18.60;;;;;;5054102;28;20933;-65
2023/08/26 08:37:30;;;;;;;2.77;2.57;;;19.40;1.00;;;;;;5054994;28;20783;-66
2023/08/26 08:39:56;;;;;;;2.63;2.37;;;19.50;1.00;;;;;;5054902;28;20409;-69
2023/08/26 08:42:22;;;;;;;6.37;3.00;;;19.50;1.00;;;;;;5054828;28;20809;-69
2023/08/26 08:44:48;;;;;;;2.63;2.40;;;19.70;1.00;;;;;;5054659;28;20179;-66
2023/08/26 08:47:15;;;;;;;9.20;2.63;;;19.80;1.00;;;;;;5052269;28;20877;-67
2023/08/26 08:49:43;;;;;;;3.60;2.70;;;19.80;1.00;;;;;;5055850;28;21031;-69
2023/08/26 08:52:10;;;;;;;4.03;2.67;;;19.80;1.00;;;;;;5054851;28;20455;-69
2023/08/26 08:54:36;;;;;;;5.27;2.50;;;19.90;1.00;;;;;;5054475;28;20933;-69
2023/08/26 08:57:06;;;;;;;3.87;3.47;;;19.80;99.90;;;;;;5053632;28;20397;-65
2023/08/26 08:59:35;;;;;;;3.87;2.43;;;19.80;99.90;;;;;;5054703;28;20496;-66
2023/08/26 09:02:02;;;;;;;2.60;2.40;;;19.90;99.90;;;;;;5054468;28;20456;-66
2023/08/26 09:04:28;;;;;;;2.40;2.20;;;20.00;99.90;;;;;;5062440;28;20963;-70
2023/08/26 09:06:54;;;;;;;3.70;2.13;;;20.30;99.90;;;;;;5051971;28;20418;-69
2023/08/26 09:09:21;;;;;;;3.00;2.50;;;20.40;99.90;;;;;;5054226;28;20449;-68
2023/08/26 09:11:47;;;;;;;6.40;2.70;;;20.70;99.90;;;;;;5054272;28;20430;-68
2023/08/26 09:14:13;;;;;;;4.73;1.97;;;21.00;99.90;;;;;;5054366;28;20409;-68
2023/08/26 09:16:41;;;;;;;3.47;2.53;;;21.30;99.90;;;;;;5053255;28;20433;-72
2023/08/26 09:19:13;;;;;;;2.97;2.23;;;21.30;99.90;;;;;;5054099;28;20273;-67
2023/08/26 09:21:46;;;;;;;6.50;2.57;;;21.20;99.90;;;;;;5054319;28;20456;-66
2023/08/26 09:24:13;;;;;;;4.07;3.00;;;20.90;99.90;;;;;;5053645;28;20417;-71
2023/08/26 09:26:40;;;;;;;3.93;2.50;;;20.60;99.90;;;;;;5053076;28;20398;-69
2023/08/26 09:51:52;;;;;;;2.50;2.30;;;21.90;27.40;;;;;;5070181;28;20551;-67
2023/08/26 09:54:21;;;;;;;2.37;2.20;;;22.00;13.60;;;;;;5070441;28;20397;-67
2023/08/26 09:56:48;;;;;;;3.70;2.70;;;22.10;3.90;;;;;;5069151;28;20389;-70
2023/08/26 09:59:14;;;;;;;2.87;2.63;;;22.40;5.50;;;;;;5069599;28;20451;-70
2023/08/26 10:01:41;;;;;;;10.90;3.20;;;22.90;1.00;;;;;;5066334;28;20428;-70
2023/08/26 10:04:11;;;;;;;2.27;2.07;;;23.50;1.00;;;;;;5049471;28;20898;-71
2023/08/26 10:06:43;;;;;;;2.70;1.50;;;23.50;1.00;;;;;;5048505;28;20556;-71
2023/08/26 10:09:37;;;;;;;8.00;2.00;;;22.70;1.00;;;;;;5049616;28;20429;-69
2023/08/26 10:12:05;;;;;;;2.77;2.57;;;21.80;1.00;;;;;;5049690;28;20410;-77
2023/08/26 10:14:35;;;;;;;3.20;1.90;;;21.00;1.00;;;;;;5049774;28;20443;-76
2023/08/26 10:17:04;;;;;;;1.90;1.80;;;21.00;1.00;;;;;;5062871;28;20413;-76
2023/08/26 10:19:31;;;;;;;2.13;2.03;;;21.70;1.00;;;;;;5049386;28;20401;-76
2023/08/26 10:21:58;;;;;;;3.90;1.53;;;22.50;1.00;;;;;;5049473;28;20390;-77
2023/08/26 10:24:25;;;;;;;1.93;1.53;;;23.00;1.00;;;;;;5049490;28;20902;-76
2023/08/26 10:26:50;;;;;;;2.93;1.70;;;23.50;1.00;;;;;;5046913;28;20426;-70
2023/08/26 10:29:17;;;;;;;4.00;1.63;;;23.80;1.00;;;;;;5049241;28;20428;-69
2023/08/26 10:31:45;;;;;;;3.03;1.50;;;23.70;1.00;;;;;;5049408;28;20783;-77
2023/08/26 10:34:11;;;;;;;1.30;1.20;;;23.70;1.00;;;;;;5067483;28;20511;-70
2023/08/26 10:36:39;;;;;;;1.63;0.90;;;23.80;1.00;;;;;;5068163;28;20542;-76
2023/08/26 10:39:15;;;;;;;1.30;1.00;;;24.20;1.00;;;;;;5067712;28;20198;-72
2023/08/26 10:42:13;;;;;;;2.33;1.40;;;24.60;1.00;;;;;;5068361;28;20428;-78
2023/08/26 10:44:40;;;;;;;1.97;1.07;;;24.90;1.00;;;;;;5067867;28;20408;-72
2023/08/26 10:47:06;;;;;;;1.70;1.20;;;24.80;1.00;;;;;;5066729;28;20913;-76
2023/08/26 10:49:33;;;;;;;5.27;1.97;;;24.90;1.00;;;;;;5051814;28;20433;-73
2023/08/26 10:52:09;;;;;;;2.77;1.30;;;25.20;1.00;;;;;;5048429;28;20449;-69
2023/08/26 10:54:36;;;;;;;2.50;1.17;;;25.00;1.00;;;;;;5048989;28;20401;-69
2023/08/26 10:57:08;;;;;;;1.47;1.37;;;24.80;1.00;;;;;;5047173;28;20421;-71
2023/08/26 10:59:35;;;;;;;1.73;1.40;;;24.90;1.00;;;;;;5048019;28;20417;-78
2023/08/26 11:02:05;;;;;;;2.00;1.07;;;25.00;1.00;;;;;;5041913;28;20410;-76
2023/08/26 11:04:31;;;;;;;1.20;1.10;;;25.20;1.00;;;;;;5034014;28;20488;-75
2023/08/26 11:06:57;;;;;;;1.50;1.07;;;25.00;1.00;;;;;;5034774;28;20418;-77
2023/08/26 11:09:23;;;;;;;1.73;0.80;;;25.30;1.00;;;;;;5035418;28;20390;-69
2023/08/26 11:11:49;;;;;;;1.43;0.90;;;25.60;1.00;;;;;;5035386;28;20891;-69
2023/08/26 11:14:15;;;;;;;1.20;0.97;;;25.80;1.00;;;;;;5041155;28;20179;-68
2023/08/26 11:16:40;;;;;;;1.53;0.83;;;26.20;99.90;;;;;;5037876;28;20175;-69
2023/08/26 11:19:07;;;;;;;1.63;1.10;;;26.20;99.90;;;;;;5047023;28;20277;-70
2023/08/26 11:21:37;;;;;;;1.90;1.20;;;26.50;99.90;;;;;;5055259;28;20591;-69
2023/08/26 11:24:03;;;;;;;5.33;0.90;;;26.60;99.90;;;;;;5055054;28;20429;-77
2023/08/26 11:26:29;;;;;;;1.70;0.90;;;27.20;99.90;;;;;;5053252;28;20442;-78
2023/08/26 11:28:58;;;;;;;1.83;1.10;;;27.10;99.90;;;;;;5055045;28;20926;-74
2023/08/26 11:31:24;;;;;;;2.50;0.90;;;26.80;99.90;;;;;;5046382;28;20204;-75
2023/08/26 11:33:52;;;;;;;1.40;1.10;;;26.60;99.90;;;;;;5042163;28;20446;-69
2023/08/26 11:36:22;;;;;;;1.70;1.30;;;26.50;99.90;;;;;;5053952;28;20620;-69
2023/08/26 11:38:47;;;;;;;1.60;1.00;;;26.50;99.90;;;;;;5053630;28;20452;-76
2023/08/26 11:41:13;;;;;;;3.20;0.73;;;26.40;99.90;;;;;;5054801;28;20932;-69
2023/08/26 11:43:39;;;;;;;2.13;1.47;;;26.50;99.90;;;;;;5053699;28;20250;-77
2023/08/26 11:46:05;;;;;;;1.50;1.00;;;26.70;99.90;;;;;;5032885;28;20218;-76
2023/08/26 11:48:35;;;;;;;2.53;1.00;;;26.60;99.90;;;;;;5033948;28;20290;-73
2023/08/26 11:51:01;;;;;;;1.50;0.90;;;26.00;99.90;;;;;;5035546;28;20458;-76
2023/08/26 11:53:27;;;;;;;2.07;1.17;;;25.60;99.90;;;;;;5034544;28;20410;-69
2023/08/26 11:55:54;;;;;;;1.00;0.80;;;25.20;99.90;;;;;;5033677;28;20191;-70
2023/08/26 11:58:20;;;;;;;2.37;0.83;;;25.20;99.90;;;;;;5034549;28;20520;-71
2023/08/26 12:00:47;;;;;;;1.87;0.80;;;25.40;99.90;;;;;;5034559;28;20763;-77
2023/08/26 12:03:13;;;;;;;1.97;0.90;;;25.10;99.90;;;;;;5045646;28;20429;-75
2023/08/26 12:05:50;;;;;;;4.57;1.47;;;25.10;99.90;;;;;;5053570;28;20406;-70
2023/08/26 12:08:17;;;;;;;1.87;0.80;;;25.40;99.90;;;;;;5054076;28;20236;-72
2023/08/26 12:10:47;;;;;;;1.40;0.90;;;25.10;99.90;;;;;;5053857;28;20444;-77
2023/08/26 12:13:13;;;;;;;1.93;0.70;;;25.00;99.90;;;;;;5053269;28;20493;-69
2023/08/26 12:15:40;;;;;;;1.10;0.70;;;24.60;99.90;;;;;;5053427;28;20830;-77
2023/08/26 12:18:06;;;;;;;3.40;1.07;;;24.30;99.90;;;;;;5051352;28;20205;-69
2023/08/26 12:20:32;;;;;;;3.57;1.47;;;23.80;99.90;;;;;;5033896;28;20472;-69
2023/08/26 12:23:00;;;;;;;1.60;1.07;;;23.90;99.90;;;;;;5032987;28;20406;-69
2023/08/26 12:25:33;;;;;;;2.10;1.10;;;24.00;99.90;;;;;;5033112;28;20183;-77
2023/08/26 12:28:17;;;;;;;2.17;1.20;;;23.90;99.90;;;;;;5033516;28;20509;-69
2023/08/26 12:30:46;;;;;;;2.80;0.90;;;23.90;99.90;;;;;;5033887;28;20446;-69
2023/08/26 12:33:12;;;;;;;2.50;1.00;;;23.90;99.90;;;;;;5049722;28;20506;-69
2023/08/26 12:35:39;;;;;;;3.07;0.93;;;24.00;99.90;;;;;;5033108;28;20394;-78
2023/08/26 12:38:05;;;;;;;1.50;1.33;;;23.90;99.90;;;;;;5033746;28;20782;-77
2023/08/26 12:40:32;;;;;;;1.83;0.90;;;23.90;99.90;;;;;;5033692;28;20395;-70
2023/08/26 12:42:59;;;;;;;2.07;1.40;;;23.90;99.90;;;;;;5033860;28;20751;-76
2023/08/26 12:45:24;;;;;;;1.70;0.90;;;23.90;99.90;;;;;;5031984;28;20399;-77
2023/08/26 12:47:50;;;;;;;3.53;1.20;;;24.20;99.90;;;;;;5033418;28;20422;-69
2023/08/26 12:50:16;;;;;;;2.93;0.93;;;24.60;99.90;;;;;;5047710;28;20206;-71
2023/08/26 12:52:41;;;;;;;1.40;1.00;;;24.90;99.90;;;;;;5053451;28;20199;-76
2023/08/26 12:55:07;;;;;;;1.30;1.03;;;24.80;99.90;;;;;;5052553;28;20170;-75
2023/08/26 12:57:33;;;;;;;2.43;1.00;;;24.80;99.90;;;;;;5053579;28;20191;-73
2023/08/26 12:59:59;;;;;;;1.10;0.80;;;25.00;99.90;;;;;;5052756;28;20548;-73
2023/08/26 13:02:24;;;;;;;3.00;1.00;;;25.00;99.90;;;;;;5052278;28;20175;-77
2023/08/26 13:04:50;;;;;;;5.87;1.30;;;24.80;99.90;;;;;;5051492;28;20182;-70
2023/08/26 13:07:16;;;;;;;2.00;0.80;;;24.80;99.90;;;;;;5051193;28;20576;-77